createdAt,value
2024-03-02T00:00:42.490Z,8.60
2024-03-02T00:03:11.068Z,8.70
2024-03-02T00:05:39.822Z,8.70
2024-03-02T00:08:09.215Z,8.80
2024-03-02T00:10:41.634Z,8.80
2024-03-02T00:13:10.009Z,8.90
2024-03-02T00:15:43.825Z,8.90
2024-03-02T00:18:14.395Z,9.00
2024-03-02T00:20:42.319Z,9.00
2024-03-02T00:23:11.954Z,9.00
2024-03-02T00:25:42.325Z,9.00
2024-03-02T00:28:17.869Z,9.00
2024-03-02T00:30:55.996Z,9.00
2024-03-02T00:33:24.795Z,9.00
2024-03-02T00:35:52.642Z,9.00
2024-03-02T00:38:20.025Z,9.00
2024-03-02T00:40:47.871Z,9.00
2024-03-02T00:43:36.688Z,9.00
2024-03-02T00:46:04.199Z,9.00
2024-03-02T00:48:32.806Z,9.00
2024-03-02T00:51:00.369Z,9.00
2024-03-02T00:53:28.242Z,9.00
2024-03-02T00:55:55.620Z,9.10
2024-03-02T00:58:22.883Z,9.10
2024-03-02T01:00:50.389Z,9.10
2024-03-02T01:03:17.726Z,9.10
2024-03-02T01:05:45.101Z,9.10
2024-03-02T01:08:12.789Z,9.10
2024-03-02T01:10:40.305Z,9.20
2024-03-02T01:13:07.668Z,9.20
2024-03-02T01:15:35.445Z,9.20
2024-03-02T01:18:02.715Z,9.20
2024-03-02T01:20:30.163Z,9.20
2024-03-02T01:22:57.433Z,9.20
2024-03-02T01:25:24.726Z,9.20
2024-03-02T01:27:52.196Z,9.20
2024-03-02T01:30:19.999Z,9.20
2024-03-02T01:32:47.344Z,9.20
2024-03-02T01:35:16.095Z,9.20
2024-03-02T01:37:43.723Z,9.10
2024-03-02T01:40:12.240Z,9.10
2024-03-02T01:42:40.500Z,9.10
2024-03-02T01:45:09.171Z,9.10
2024-03-02T01:47:37.059Z,9.00
2024-03-02T01:50:04.791Z,9.10
2024-03-02T01:52:32.223Z,9.00
2024-03-02T01:54:59.705Z,9.10
2024-03-02T01:57:27.150Z,9.00
2024-03-02T01:59:54.605Z,9.00
2024-03-02T02:02:21.957Z,9.00
2024-03-02T02:04:49.457Z,9.00
2024-03-02T02:07:16.654Z,9.00
2024-03-02T02:09:44.426Z,9.00
2024-03-02T02:12:12.201Z,9.10
2024-03-02T02:14:41.275Z,9.10
2024-03-02T02:17:08.548Z,9.10
2024-03-02T02:19:36.037Z,9.10
2024-03-02T02:22:03.352Z,9.10
2024-03-02T02:24:32.886Z,9.10
2024-03-02T02:27:00.242Z,9.10
2024-03-02T02:29:27.602Z,9.20
2024-03-02T02:31:54.840Z,9.20
2024-03-02T02:34:22.285Z,9.20
2024-03-02T02:36:49.653Z,9.30
2024-03-02T02:39:19.914Z,9.30
2024-03-02T02:41:47.442Z,9.30
2024-03-02T02:44:15.330Z,9.40
2024-03-02T02:46:42.722Z,9.40
2024-03-02T02:49:10.083Z,9.40
2024-03-02T02:51:37.840Z,9.40
2024-03-02T02:54:05.146Z,9.50
2024-03-02T02:56:32.733Z,9.50
2024-03-02T02:59:00.077Z,9.60
2024-03-02T03:01:28.831Z,9.60
2024-03-02T03:03:56.246Z,9.60
2024-03-02T03:06:23.586Z,9.60
2024-03-02T03:08:50.887Z,9.70
2024-03-02T03:11:18.462Z,9.70
2024-03-02T03:13:45.881Z,9.70
2024-03-02T03:16:13.323Z,9.70
2024-03-02T03:18:40.951Z,9.70
2024-03-02T03:21:08.363Z,9.70
2024-03-02T03:23:35.617Z,9.70
2024-03-02T03:26:04.064Z,9.70
2024-03-02T03:28:31.288Z,9.70
2024-03-02T03:30:58.675Z,9.70
2024-03-02T03:33:26.063Z,9.70
2024-03-02T03:35:54.926Z,9.70
2024-03-02T03:38:22.252Z,9.70
2024-03-02T03:40:49.662Z,9.70
2024-03-02T03:43:16.841Z,9.70
2024-03-02T03:45:44.480Z,9.60
2024-03-02T03:48:11.835Z,9.60
2024-03-02T03:50:39.452Z,9.60
2024-03-02T03:53:06.695Z,9.60
2024-03-02T03:55:34.232Z,9.60
2024-03-02T03:58:01.657Z,9.50
2024-03-02T04:00:29.126Z,9.50
2024-03-02T04:02:59.253Z,9.50
2024-03-02T04:05:26.605Z,9.40
2024-03-02T04:07:53.794Z,9.40
2024-03-02T04:10:22.118Z,9.40
2024-03-02T04:12:51.605Z,9.40
2024-03-02T04:15:19.923Z,9.30
2024-03-02T04:17:47.396Z,9.30
2024-03-02T04:20:14.801Z,9.30
2024-03-02T04:22:42.087Z,9.30
2024-03-02T04:25:10.776Z,9.20
2024-03-02T04:27:38.030Z,9.20
2024-03-02T04:30:06.644Z,9.20
2024-03-02T04:32:34.095Z,9.20
2024-03-02T04:35:01.492Z,9.20
2024-03-02T04:37:28.740Z,9.20
2024-03-02T04:39:56.341Z,9.20
2024-03-02T04:42:23.869Z,9.20
2024-03-02T04:44:51.251Z,9.20
2024-03-02T04:47:18.625Z,9.20
2024-03-02T04:49:46.269Z,9.20
2024-03-02T04:52:13.534Z,9.20
2024-03-02T04:54:42.510Z,9.30
2024-03-02T04:57:09.654Z,9.30
2024-03-02T04:59:36.917Z,9.20
2024-03-02T05:02:04.154Z,9.20
2024-03-02T05:04:31.854Z,9.20
2024-03-02T05:09:26.517Z,9.20
2024-03-02T05:12:11.072Z,9.20
2024-03-02T05:14:39.826Z,9.20
2024-03-02T05:17:07.065Z,9.10
2024-03-02T05:19:34.484Z,9.20
2024-03-02T05:22:01.795Z,9.20
2024-03-02T05:24:29.171Z,9.10
2024-03-02T05:26:56.805Z,9.10
2024-03-02T05:29:24.202Z,9.10
2024-03-02T05:31:51.640Z,9.10
2024-03-02T05:34:19.872Z,9.10
2024-03-02T05:36:47.369Z,9.00
2024-03-02T05:39:15.051Z,9.00
2024-03-02T05:41:42.627Z,9.00
2024-03-02T05:44:09.961Z,9.00
2024-03-02T05:46:39.268Z,9.00
2024-03-02T05:49:09.360Z,9.00
2024-03-02T05:51:36.969Z,9.10
2024-03-02T05:54:04.514Z,9.00
2024-03-02T05:56:32.001Z,9.00
2024-03-02T05:59:09.862Z,9.00
2024-03-02T06:01:37.525Z,9.10
2024-03-02T06:04:05.071Z,9.10
2024-03-02T06:06:34.776Z,9.10
2024-03-02T06:09:06.524Z,9.10
2024-03-02T06:11:33.966Z,9.10
2024-03-02T06:14:01.132Z,9.00
2024-03-02T06:16:28.641Z,9.00
2024-03-02T06:18:56.094Z,8.90
2024-03-02T06:21:23.446Z,8.90
2024-03-02T06:23:50.954Z,8.90
2024-03-02T06:26:20.569Z,8.90
2024-03-02T06:28:49.021Z,8.80
2024-03-02T06:31:16.411Z,8.80
2024-03-02T06:33:43.979Z,8.80
2024-03-02T06:36:13.054Z,8.80
2024-03-02T06:38:43.631Z,8.90
2024-03-02T06:41:12.060Z,8.80
2024-03-02T06:43:40.141Z,8.80
2024-03-02T06:46:10.799Z,8.80
2024-03-02T06:48:38.293Z,8.80
2024-03-02T06:51:05.608Z,8.80
2024-03-02T06:53:35.102Z,8.80
2024-03-02T06:56:02.791Z,8.80
2024-03-02T06:58:30.077Z,8.90
2024-03-02T07:00:57.517Z,8.80
2024-03-02T07:03:24.958Z,8.90
2024-03-02T07:05:52.346Z,8.90
2024-03-02T07:08:19.523Z,8.90
2024-03-02T07:10:48.344Z,8.90
2024-03-02T07:13:15.605Z,8.90
2024-03-02T07:15:44.524Z,8.90
2024-03-02T07:18:11.968Z,8.90
2024-03-02T07:20:40.281Z,8.90
2024-03-02T07:23:07.670Z,8.90
2024-03-02T07:28:05.935Z,8.90
2024-03-02T07:30:34.418Z,8.90
2024-03-02T07:33:02.104Z,8.90
2024-03-02T07:35:29.767Z,8.90
2024-03-02T07:37:58.282Z,9.00
2024-03-02T07:40:25.849Z,9.00
2024-03-02T07:42:53.127Z,9.00
2024-03-02T07:45:20.566Z,9.00
2024-03-02T07:47:48.339Z,9.00
2024-03-02T07:50:15.700Z,9.10
2024-03-02T07:52:42.965Z,9.00
2024-03-02T07:55:10.406Z,9.00
2024-03-02T07:57:37.824Z,9.00
2024-03-02T08:00:05.858Z,8.90
2024-03-02T08:02:39.697Z,8.90
2024-03-02T08:05:07.520Z,8.90
2024-03-02T08:07:35.029Z,8.90
2024-03-02T08:10:02.586Z,8.80
2024-03-02T08:12:29.882Z,8.90
2024-03-02T08:14:57.385Z,8.90
2024-03-02T08:17:24.788Z,8.90
2024-03-02T08:19:52.151Z,9.00
2024-03-02T08:22:19.448Z,8.90
2024-03-02T08:24:47.186Z,9.00
2024-03-02T08:27:14.558Z,9.10
2024-03-02T08:29:42.914Z,9.10
2024-03-02T08:32:10.214Z,9.20
2024-03-02T08:34:37.525Z,9.30
2024-03-02T08:37:07.591Z,9.20
2024-03-02T08:39:35.147Z,9.20
2024-03-02T08:42:02.584Z,9.30
2024-03-02T08:44:30.025Z,9.30
2024-03-02T08:46:57.477Z,9.30
2024-03-02T08:49:24.993Z,9.30
2024-03-02T08:51:56.460Z,9.20
2024-03-02T08:54:24.426Z,9.30
2024-03-02T08:56:52.016Z,9.20
2024-03-02T08:59:19.534Z,9.20
2024-03-02T09:01:46.858Z,9.20
2024-03-02T09:04:14.236Z,9.20
2024-03-02T09:06:42.299Z,9.20
2024-03-02T09:09:09.800Z,9.20
2024-03-02T09:11:38.223Z,9.20
2024-03-02T09:14:06.303Z,9.20
2024-03-02T09:16:33.717Z,9.20
2024-03-02T09:19:02.043Z,9.20
2024-03-02T09:21:31.269Z,9.20
2024-03-02T09:23:58.853Z,9.20
2024-03-02T09:26:26.121Z,9.20
2024-03-02T09:28:54.218Z,9.20
2024-03-02T09:31:21.658Z,9.30
2024-03-02T09:33:49.138Z,9.30
2024-03-02T09:36:19.034Z,9.40
2024-03-02T09:38:46.698Z,9.40
2024-03-02T09:41:15.033Z,9.40
2024-03-02T09:43:42.637Z,9.40
2024-03-02T09:46:11.281Z,9.40
2024-03-02T09:48:39.367Z,9.50
2024-03-02T09:51:07.202Z,9.50
2024-03-02T09:53:35.681Z,9.50
2024-03-02T09:56:03.351Z,9.50
2024-03-02T09:58:30.946Z,9.60
2024-03-02T10:00:58.470Z,9.60
2024-03-02T10:03:26.019Z,9.60
2024-03-02T10:05:53.409Z,9.60
2024-03-02T10:08:20.824Z,9.60
2024-03-02T10:10:48.213Z,9.60
2024-03-02T10:13:15.674Z,9.70
2024-03-02T10:15:43.707Z,9.70
2024-03-02T10:18:13.037Z,9.60
2024-03-02T10:20:41.976Z,9.70
2024-03-02T10:23:11.837Z,9.70
2024-03-02T10:25:44.036Z,9.60
2024-03-02T10:28:19.518Z,9.70
2024-03-02T10:30:51.416Z,9.80
2024-03-02T10:33:19.245Z,9.90
2024-03-02T10:35:46.776Z,10.00
2024-03-02T10:38:14.325Z,9.90
2024-03-02T10:40:41.752Z,9.90
2024-03-02T10:43:10.130Z,9.90
2024-03-02T10:45:37.601Z,9.90
2024-03-02T10:48:06.656Z,9.90
2024-03-02T10:50:34.665Z,9.90
2024-03-02T10:53:02.429Z,9.90
2024-03-02T10:55:30.537Z,9.80
2024-03-02T10:58:04.525Z,9.80
2024-03-02T11:00:34.306Z,9.80
2024-03-02T11:03:07.428Z,9.80
2024-03-02T11:05:37.308Z,9.80
2024-03-02T11:08:09.318Z,9.80
2024-03-02T11:10:43.021Z,9.80
2024-03-02T11:13:12.894Z,9.90
2024-03-02T11:15:45.022Z,9.90
2024-03-02T11:18:14.057Z,9.90
2024-03-02T11:20:42.570Z,9.90
2024-03-02T11:23:10.946Z,10.00
2024-03-02T11:25:39.490Z,10.00
2024-03-02T11:28:11.023Z,10.10
2024-03-02T11:30:52.144Z,10.10
2024-03-02T11:33:26.978Z,10.20
2024-03-02T11:35:54.916Z,10.30
2024-03-02T11:38:22.467Z,10.30
2024-03-02T11:40:50.110Z,10.30
2024-03-02T11:43:17.743Z,10.40
2024-03-02T11:45:46.101Z,10.40
2024-03-02T11:48:16.524Z,10.40
2024-03-02T11:50:48.786Z,10.50
2024-03-02T11:53:17.128Z,10.50
2024-03-02T11:55:48.137Z,10.50
2024-03-02T11:58:19.298Z,10.50
2024-03-02T12:00:46.786Z,10.50
2024-03-02T12:03:16.207Z,10.60
2024-03-02T12:05:44.478Z,10.60
2024-03-02T12:08:13.743Z,10.70
2024-03-02T12:10:41.196Z,10.60
2024-03-02T12:13:11.055Z,10.70
2024-03-02T12:15:40.398Z,10.70
2024-03-02T12:18:08.130Z,10.80
2024-03-02T12:20:35.852Z,10.70
2024-03-02T12:23:06.301Z,10.70
2024-03-02T12:25:34.731Z,10.60
2024-03-02T12:28:03.864Z,10.30
2024-03-02T12:30:32.610Z,10.00
2024-03-02T12:33:00.021Z,9.80
2024-03-02T12:35:27.620Z,9.50
2024-03-02T12:37:56.061Z,9.30
2024-03-02T12:40:24.390Z,9.20
2024-03-02T12:42:52.986Z,9.10
2024-03-02T12:45:26.037Z,9.00
2024-03-02T12:47:54.350Z,8.90
2024-03-02T12:50:22.814Z,8.90
2024-03-02T12:52:54.413Z,8.90
2024-03-02T12:55:24.269Z,8.90
2024-03-02T12:57:53.743Z,8.80
2024-03-02T13:00:23.312Z,8.80
2024-03-02T13:02:52.945Z,8.80
2024-03-02T13:05:21.794Z,8.80
2024-03-02T13:07:50.177Z,8.80
2024-03-02T13:10:19.544Z,8.80
2024-03-02T13:12:47.778Z,8.60
2024-03-02T13:15:18.281Z,8.60
2024-03-02T13:17:47.826Z,8.60
2024-03-02T13:20:16.456Z,8.50
2024-03-02T13:22:43.911Z,8.40
2024-03-02T13:25:12.870Z,8.50
2024-03-02T13:27:41.258Z,8.60
2024-03-02T13:30:10.569Z,8.60
2024-03-02T13:32:38.322Z,8.70
2024-03-02T13:35:06.191Z,8.70
2024-03-02T13:37:33.813Z,8.70
2024-03-02T13:40:01.177Z,8.80
2024-03-02T13:42:28.999Z,8.70
2024-03-02T13:44:56.502Z,8.80
2024-03-02T13:47:23.904Z,9.00
2024-03-02T13:49:51.267Z,9.00
2024-03-02T13:52:18.825Z,9.00
2024-03-02T13:54:48.271Z,9.00
2024-03-02T13:57:15.703Z,9.10
2024-03-02T13:59:44.767Z,9.10
2024-03-02T14:02:13.858Z,9.00
2024-03-02T14:04:41.379Z,8.90
2024-03-02T14:07:09.237Z,8.90
2024-03-02T14:09:37.813Z,8.90
2024-03-02T14:12:07.093Z,9.00
2024-03-02T14:14:34.648Z,9.00
2024-03-02T14:17:05.094Z,8.90
2024-03-02T14:19:32.787Z,8.90
2024-03-02T14:22:01.117Z,8.80
2024-03-02T14:24:30.982Z,8.70
2024-03-02T14:27:06.374Z,8.70
2024-03-02T14:29:44.477Z,8.60
2024-03-02T14:32:11.705Z,8.60
2024-03-02T14:34:40.602Z,8.60
2024-03-02T14:37:08.406Z,8.60
2024-03-02T14:39:36.745Z,8.60
2024-03-02T14:42:04.277Z,8.60
2024-03-02T14:44:31.760Z,8.70
2024-03-02T14:47:00.214Z,8.80
2024-03-02T14:49:28.219Z,8.90
2024-03-02T14:51:55.736Z,9.00
2024-03-02T14:54:23.543Z,9.10
2024-03-02T14:56:51.546Z,9.30
2024-03-02T14:59:18.886Z,9.40
2024-03-02T15:01:47.495Z,9.40
2024-03-02T15:04:15.612Z,9.50
2024-03-02T15:06:44.049Z,9.40
2024-03-02T15:09:11.488Z,9.40
2024-03-02T15:11:38.959Z,9.40
2024-03-02T15:14:06.843Z,9.50
2024-03-02T15:16:34.165Z,9.50
2024-03-02T15:19:01.777Z,9.50
2024-03-02T15:21:29.154Z,9.50
2024-03-02T15:23:56.571Z,9.60
2024-03-02T15:26:23.965Z,9.70
2024-03-02T15:28:51.536Z,9.70
2024-03-02T15:31:18.924Z,9.70
2024-03-02T15:33:46.323Z,9.70
2024-03-02T15:36:13.816Z,9.60
2024-03-02T15:38:42.731Z,9.60
2024-03-02T15:41:10.642Z,9.60
2024-03-02T15:43:40.774Z,9.60
2024-03-02T15:46:09.680Z,9.70
2024-03-02T15:48:37.554Z,9.70
2024-03-02T15:51:06.939Z,9.70
2024-03-02T15:53:34.907Z,9.70
2024-03-02T15:56:03.759Z,9.60
2024-03-02T15:58:32.099Z,9.60
2024-03-02T16:00:59.438Z,9.70
2024-03-02T16:03:26.928Z,9.70
2024-03-02T16:05:54.342Z,9.70
2024-03-02T16:08:21.606Z,9.70
2024-03-02T16:10:48.848Z,9.70
2024-03-02T16:13:16.209Z,9.70
2024-03-02T16:15:43.511Z,9.70
2024-03-02T16:18:10.819Z,9.70
2024-03-02T16:20:38.155Z,9.70
2024-03-02T16:23:05.617Z,9.70
2024-03-02T16:25:32.922Z,9.70
2024-03-02T16:28:02.815Z,9.60
2024-03-02T16:30:30.962Z,9.50
2024-03-02T16:32:58.311Z,9.50
2024-03-02T16:35:25.647Z,9.40
2024-03-02T16:37:53.122Z,9.40
2024-03-02T16:40:20.701Z,9.50
2024-03-02T16:42:48.170Z,9.50
2024-03-02T16:45:15.516Z,9.50
2024-03-02T16:47:42.889Z,9.60
2024-03-02T16:50:13.163Z,9.70
2024-03-02T16:52:40.621Z,9.70
2024-03-02T16:55:08.543Z,9.70
2024-03-02T16:57:36.348Z,9.80
2024-03-02T17:00:04.083Z,9.70
2024-03-02T17:02:31.401Z,9.70
2024-03-02T17:04:58.719Z,9.60
2024-03-02T17:07:27.256Z,9.50
2024-03-02T17:09:57.085Z,9.40
2024-03-02T17:12:25.048Z,9.50
2024-03-02T17:14:52.719Z,9.50
2024-03-02T17:17:20.072Z,9.40
2024-03-02T17:19:47.328Z,9.40
2024-03-02T17:22:14.718Z,9.50
2024-03-02T17:24:42.063Z,9.40
2024-03-02T17:27:09.538Z,9.40
2024-03-02T17:29:36.756Z,9.40
2024-03-02T17:32:04.390Z,9.30
2024-03-02T17:34:31.651Z,9.20
2024-03-02T17:36:59.047Z,9.10
2024-03-02T17:39:26.411Z,9.10
2024-03-02T17:41:54.846Z,9.10
2024-03-02T17:44:22.144Z,9.10
2024-03-02T17:46:49.570Z,9.10
2024-03-02T17:49:20.345Z,9.00
2024-03-02T17:51:48.226Z,9.00
2024-03-02T17:54:15.604Z,9.00
2024-03-02T17:56:42.947Z,9.00
2024-03-02T17:59:10.154Z,9.00
2024-03-02T18:01:37.495Z,9.10
2024-03-02T18:04:08.384Z,9.20
2024-03-02T18:06:37.538Z,9.30
2024-03-02T18:09:04.955Z,9.20
2024-03-02T18:11:32.369Z,9.20
2024-03-02T18:13:59.645Z,9.30
2024-03-02T18:16:27.026Z,9.40
2024-03-02T18:18:54.556Z,9.40
2024-03-02T18:21:21.977Z,9.50
2024-03-02T18:23:49.215Z,9.50
2024-03-02T18:26:18.335Z,9.60
2024-03-02T18:28:46.737Z,9.60
2024-03-02T18:31:14.203Z,9.60
2024-03-02T18:33:41.586Z,9.60
2024-03-02T18:36:09.243Z,9.60
2024-03-02T18:38:36.445Z,9.60
2024-03-02T18:41:04.117Z,9.70
2024-03-02T18:43:32.296Z,9.70
2024-03-02T18:46:01.010Z,9.70
2024-03-02T18:48:28.398Z,9.70
2024-03-02T18:50:55.896Z,9.70
2024-03-02T18:53:23.402Z,9.50
2024-03-02T18:55:51.025Z,9.30
2024-03-02T18:58:18.298Z,9.20
2024-03-02T19:00:45.727Z,9.20
2024-03-02T19:03:13.704Z,9.20
2024-03-02T19:05:41.093Z,9.30
2024-03-02T19:08:09.299Z,9.30
2024-03-02T19:10:36.733Z,9.30
2024-03-02T19:13:04.025Z,9.20
2024-03-02T19:15:31.312Z,9.10
2024-03-02T19:17:59.642Z,9.00
2024-03-02T19:20:27.202Z,8.90
2024-03-02T19:22:55.471Z,8.90
2024-03-02T19:25:23.336Z,8.90
2024-03-02T19:27:50.579Z,8.80
2024-03-02T19:30:18.185Z,8.70
2024-03-02T19:32:45.679Z,8.70
2024-03-02T19:35:14.237Z,8.60
2024-03-02T19:37:42.411Z,8.70
2024-03-02T19:40:11.750Z,8.70
2024-03-02T19:42:39.288Z,8.70
2024-03-02T19:45:07.449Z,8.70
2024-03-02T19:47:36.063Z,8.70
2024-03-02T19:50:05.694Z,8.70
2024-03-02T19:52:33.165Z,8.70
2024-03-02T19:55:02.929Z,8.70
2024-03-02T19:57:30.932Z,8.60
2024-03-02T19:59:58.254Z,8.60
2024-03-02T20:02:28.435Z,8.60
2024-03-02T20:04:55.979Z,8.50
2024-03-02T20:07:23.245Z,8.50
2024-03-02T20:09:52.075Z,8.50
2024-03-02T20:12:19.822Z,8.60
2024-03-02T20:14:47.282Z,8.70
2024-03-02T20:17:16.155Z,8.70
2024-03-02T20:19:43.560Z,8.70
2024-03-02T20:22:11.018Z,8.80
2024-03-02T20:24:38.539Z,8.80
2024-03-02T20:27:06.031Z,8.90
2024-03-02T20:29:33.405Z,8.90
2024-03-02T20:32:01.202Z,9.00
2024-03-02T20:34:28.588Z,9.00
2024-03-02T20:36:57.826Z,9.00
2024-03-02T20:39:25.484Z,9.10
2024-03-02T20:41:52.697Z,9.10
2024-03-02T20:44:24.193Z,9.10
2024-03-02T20:46:54.629Z,9.20
2024-03-02T20:49:22.053Z,9.20
2024-03-02T20:51:49.607Z,9.20
2024-03-02T20:54:17.206Z,9.30
2024-03-02T20:56:45.386Z,9.20
2024-03-02T20:59:12.727Z,9.30
2024-03-02T21:01:40.281Z,9.30
2024-03-02T21:04:07.553Z,9.30
2024-03-02T21:06:34.837Z,9.30
2024-03-02T21:09:02.252Z,9.30
2024-03-02T21:11:29.597Z,9.30
2024-03-02T21:13:57.543Z,9.40
2024-03-02T21:16:25.124Z,9.40
2024-03-02T21:18:54.983Z,9.30
2024-03-02T21:21:22.620Z,9.30
2024-03-02T21:23:49.964Z,9.30
2024-03-02T21:26:17.265Z,9.30
2024-03-02T21:28:44.448Z,9.30
2024-03-02T21:31:17.267Z,9.30
2024-03-02T21:33:45.139Z,9.30
2024-03-02T21:36:12.481Z,9.20
2024-03-02T21:38:39.828Z,9.20
2024-03-02T21:41:08.141Z,9.20
2024-03-02T21:43:36.447Z,9.20
2024-03-02T21:46:03.865Z,9.20
2024-03-02T21:48:31.150Z,9.20
2024-03-02T21:50:58.581Z,9.20
2024-03-02T21:53:25.848Z,9.20
2024-03-02T21:55:53.031Z,9.20
2024-03-02T21:58:20.401Z,9.20
2024-03-02T22:00:47.930Z,9.10
2024-03-02T22:03:15.308Z,9.10
2024-03-02T22:05:42.672Z,9.10
2024-03-02T22:08:10.052Z,9.10
2024-03-02T22:10:37.212Z,8.90
2024-03-02T22:13:04.724Z,8.80
2024-03-02T22:15:32.073Z,8.80
2024-03-02T22:18:01.599Z,8.80
2024-03-02T22:20:28.890Z,8.80
2024-03-02T22:22:56.509Z,8.70
2024-03-02T22:25:23.859Z,8.70
2024-03-02T22:27:56.603Z,8.70
2024-03-02T22:30:24.854Z,8.70
2024-03-02T22:32:52.366Z,8.70
2024-03-02T22:35:23.133Z,8.70
2024-03-02T22:37:51.923Z,8.70
2024-03-02T22:40:19.538Z,8.80
2024-03-02T22:42:47.123Z,8.70
2024-03-02T22:45:14.683Z,8.70
2024-03-02T22:47:42.150Z,8.70
2024-03-02T22:50:09.593Z,8.70
2024-03-02T22:52:49.255Z,8.70
2024-03-02T22:55:16.859Z,8.70
2024-03-02T22:57:44.249Z,8.70
2024-03-02T23:00:13.987Z,8.70
2024-03-02T23:02:41.198Z,8.60
2024-03-02T23:05:08.558Z,8.60
2024-03-02T23:07:35.855Z,8.50
2024-03-02T23:10:03.225Z,8.50
2024-03-02T23:12:30.565Z,8.40
2024-03-02T23:14:58.154Z,8.30
2024-03-02T23:17:25.399Z,8.30
2024-03-02T23:19:52.814Z,8.30
2024-03-02T23:22:20.191Z,8.30
2024-03-02T23:24:47.596Z,8.20
2024-03-02T23:27:15.033Z,8.20
2024-03-02T23:29:42.878Z,8.30
2024-03-02T23:32:10.079Z,8.30
2024-03-02T23:34:37.344Z,8.40
2024-03-02T23:37:05.984Z,8.30
2024-03-02T23:39:35.333Z,8.30
2024-03-02T23:42:02.539Z,8.30
2024-03-02T23:44:29.962Z,8.30
2024-03-02T23:46:57.234Z,8.30
2024-03-02T23:49:24.570Z,8.30
2024-03-02T23:51:52.042Z,8.20
2024-03-02T23:54:19.351Z,8.20
2024-03-02T23:56:47.288Z,8.10
2024-03-02T23:59:14.639Z,8.00
